Time;durP1;ratioP1;P1;durP2;ratioP2;P2;SDS_P1;SDS_P2;PMS_P1;PMS_P2;Temp;Humidity;BMP_temperature;BMP_pressure;BME280_temperature;BME280_humidity;BME280_pressure;Samples;Min_cycle;Max_cycle;Signal;HPM_P1;HPM_P2
2022/12/17 13:06:53;;;;;;;6.97;4.65;;;;;;;16.61;48.90;102562.66;6310096;22;20065;-80
2022/12/17 13:09:30;;;;;;;5.63;4.75;;;;;;;16.62;48.68;102564.41;6282843;22;20010;-80
2022/12/17 13:11:59;;;;;;;6.28;4.80;;;;;;;16.62;48.66;102559.22;6283441;22;20014;-80
2022/12/17 13:14:32;;;;;;;6.85;5.00;;;;;;;16.61;48.86;102568.75;6285104;22;19999;-80
2022/12/17 13:17:26;;;;;;;7.55;4.55;;;;;;;16.61;48.57;102566.16;6286446;22;20007;-80
2022/12/17 13:19:55;;;;;;;6.72;5.00;;;;;;;16.63;48.68;102569.63;6314269;22;20007;-80
2022/12/17 13:22:20;;;;;;;6.88;4.88;;;;;;;16.61;48.91;102558.34;6289902;22;20469;-80
2022/12/17 13:24:48;;;;;;;7.32;4.97;;;;;;;16.60;48.77;102564.38;6288498;22;20007;-79
2022/12/17 13:27:32;;;;;;;6.47;5.53;;;;;;;16.60;48.76;102561.78;6287166;22;20026;-82
2022/12/17 13:30:20;;;;;;;8.15;5.50;;;;;;;16.61;48.79;102560.94;6287941;22;20007;-81
2022/12/17 13:32:52;;;;;;;6.25;4.72;;;;;;;16.61;48.78;102550.56;6291014;22;20010;-81
2022/12/17 13:35:24;;;;;;;6.22;5.07;;;;;;;16.63;48.66;102545.38;6316242;22;20051;-81
2022/12/17 13:38:20;;;;;;;9.55;5.13;;;;;;;16.55;51.64;102553.00;6291585;22;19999;-81
2022/12/17 13:41:04;;;;;;;9.48;6.40;;;;;;;15.32;68.54;102552.53;6307510;22;20010;-83
2022/12/17 13:43:37;;;;;;;8.57;5.00;;;;;;;16.21;53.17;102547.03;6295632;22;19999;-84
2022/12/17 13:46:02;;;;;;;11.20;5.40;;;;;;;16.49;52.97;102550.28;6314140;22;20007;-82
2022/12/17 13:48:28;;;;;;;11.88;6.57;;;;;;;15.57;78.58;102555.78;6264748;22;20003;-77
2022/12/17 13:50:59;;;;;;;8.80;6.38;;;;;;;15.22;81.35;102568.66;6282263;22;20025;-77
2022/12/17 13:53:26;;;;;;;10.65;6.20;;;;;;;15.07;81.60;102560.47;6281790;22;20335;-78
2022/12/17 13:55:55;;;;;;;11.68;6.53;;;;;;;14.98;83.16;102561.09;6310506;22;20007;-80
2022/12/17 13:58:27;;;;;;;19.08;7.25;;;;;;;14.84;83.42;102555.50;6283734;22;20009;-81
2022/12/17 14:01:07;;;;;;;10.43;6.32;;;;;;;14.72;83.82;102560.31;6283690;22;20090;-81
2022/12/17 14:03:33;;;;;;;11.45;6.18;;;;;;;14.63;83.52;102557.47;6282446;22;20003;-81
2022/12/17 14:05:58;;;;;;;9.98;6.18;;;;;;;14.55;82.85;102575.38;6309415;22;20481;-81
2022/12/17 14:08:27;;;;;;;10.07;6.40;;;;;;;14.50;83.09;102580.38;6281719;22;20438;-81
2022/12/17 14:12:20;;;;;;;9.57;6.13;;;;;;;14.45;82.98;102581.94;6282015;22;20026;-80
2022/12/17 14:13:42;;;;;;;9.55;6.40;;;;;;;14.47;83.43;102584.59;6309655;22;20011;-80
2022/12/17 14:16:07;;;;;;;8.32;6.45;;;;;;;14.49;83.54;102588.97;6309052;22;20366;-80
2022/12/17 14:18:33;;;;;;;10.93;6.28;;;;;;;14.45;83.60;102594.88;6284447;22;20003;-81
2022/12/17 14:20:59;;;;;;;9.85;6.93;;;;;;;14.40;83.86;102593.88;6257430;22;20003;-81
2022/12/17 14:23:31;;;;;;;11.85;6.88;;;;;;;14.39;83.92;102597.28;6289399;22;20018;-83
2022/12/17 14:25:56;;;;;;;9.05;6.22;;;;;;;14.35;83.28;102595.41;6284954;22;20058;-81
2022/12/17 14:28:48;;;;;;;9.15;6.82;;;;;;;14.37;83.99;102601.53;6235511;22;20003;-82
2022/12/17 14:31:13;;;;;;;9.93;6.80;;;;;;;14.35;84.63;102601.50;6309137;22;19996;-81
2022/12/17 14:33:41;;;;;;;10.38;6.65;;;;;;;14.33;84.09;102597.97;6281555;22;20052;-81
2022/12/17 14:36:17;;;;;;;10.98;6.55;;;;;;;14.35;84.01;102603.19;6309109;22;20027;-81
2022/12/17 14:38:51;;;;;;;15.57;7.10;;;;;;;14.33;84.32;102600.56;6308872;22;20319;-81
2022/12/17 14:44:02;;;;;;;8.57;6.47;;;;;;;14.31;83.95;102599.63;6294476;22;20014;-81
2022/12/17 14:46:29;;;;;;;10.45;6.90;;;;;;;14.31;84.72;102611.72;6291942;22;19999;-82
2022/12/17 14:49:00;;;;;;;12.00;7.07;;;;;;;14.30;84.14;102608.22;6318029;22;19999;-82
2022/12/17 14:51:38;;;;;;;9.23;6.90;;;;;;;14.32;84.62;102618.63;6290756;22;19983;-83
2022/12/17 14:54:17;;;;;;;10.52;7.32;;;;;;;14.32;84.43;102623.81;6327662;22;20035;-83
2022/12/17 14:56:43;;;;;;;10.25;7.78;;;;;;;14.33;82.85;102635.94;6271556;22;20000;-82
2022/12/17 14:59:35;;;;;;;13.02;7.22;;;;;;;14.34;84.07;102630.81;6261206;22;20374;-82
2022/12/17 15:02:19;;;;;;;12.30;7.93;;;;;;;14.36;83.85;102633.44;6292489;22;20172;-82
2022/12/17 15:04:45;;;;;;;11.73;8.68;;;;;;;14.40;85.08;102638.78;6292003;22;20086;-83
2022/12/17 15:09:55;;;;;;;13.20;7.05;;;;;;;14.36;84.62;102642.09;6254626;22;20011;-84
2022/12/17 15:12:23;;;;;;;12.90;8.40;;;;;;;14.38;85.71;102655.09;6306101;22;20007;-84
2022/12/17 15:14:48;;;;;;;12.63;7.82;;;;;;;14.34;85.22;102651.53;6333362;22;20015;-84
2022/12/17 15:17:14;;;;;;;10.25;7.40;;;;;;;14.34;84.84;102651.53;6332084;22;20029;-84
2022/12/17 15:19:40;;;;;;;8.52;7.20;;;;;;;14.33;84.86;102639.41;6305769;22;19989;-84
2022/12/17 15:22:16;;;;;;;12.88;7.28;;;;;;;14.33;85.07;102646.31;6333255;22;19999;-84
2022/12/17 15:24:43;;;;;;;9.60;7.35;;;;;;;14.32;84.40;102658.34;6305937;22;20047;-84
2022/12/17 15:27:15;;;;;;;10.45;7.75;;;;;;;14.32;85.57;102660.94;6331779;22;20015;-84
2022/12/17 15:29:44;;;;;;;9.40;7.25;;;;;;;14.31;84.80;102660.91;6330872;22;20001;-84
2022/12/17 15:32:22;;;;;;;9.98;7.68;;;;;;;14.33;84.83;102670.50;6303116;22;20030;-83
2022/12/17 15:34:49;;;;;;;11.40;7.88;;;;;;;14.33;84.84;102675.69;6278974;22;19991;-83
2022/12/17 15:37:15;;;;;;;9.70;7.20;;;;;;;14.32;84.71;102673.03;6331756;22;20005;-83
2022/12/17 15:39:44;;;;;;;8.88;7.32;;;;;;;14.30;84.29;102669.50;6278647;22;19987;-83
2022/12/17 15:44:53;;;;;;;10.63;7.80;;;;;;;14.30;84.44;102677.28;6332192;22;19994;-83
2022/12/17 15:47:22;;;;;;;9.52;7.60;;;;;;;14.29;85.14;102673.81;6332703;22;19995;-83
2022/12/17 15:49:48;;;;;;;9.00;7.60;;;;;;;14.31;84.87;102679.06;6305026;22;20017;-83
2022/12/17 15:52:14;;;;;;;10.63;7.82;;;;;;;14.28;84.62;102679.81;6305921;22;19999;-83
2022/12/17 15:54:41;;;;;;;8.88;7.10;;;;;;;14.32;85.06;102688.56;6331219;22;20006;-83
2022/12/17 15:57:06;;;;;;;9.55;7.57;;;;;;;14.30;85.61;102685.91;6332244;22;20007;-83
2022/12/17 15:59:32;;;;;;;9.73;7.78;;;;;;;14.34;84.86;102679.13;6296642;22;20003;-82
2022/12/17 18:08:05;;;;;;;11.18;8.93;;;;;;;14.86;80.61;102709.38;6282311;22;20046;-80
2022/12/17 18:10:31;;;;;;;11.02;9.70;;;;;;;14.80;81.46;102717.81;6318213;22;20063;-82
2022/12/17 20:43:10;;;;;;;12.93;10.00;;;;;;;14.87;76.74;102808.75;6318455;22;20027;-81
2022/12/17 20:45:54;;;;;;;12.40;9.82;;;;;;;14.84;76.54;102806.94;6275129;22;20022;-80
2022/12/17 20:48:35;;;;;;;12.73;9.65;;;;;;;14.86;76.44;102802.69;6308589;22;19999;-82
2022/12/17 20:51:15;;;;;;;11.65;9.73;;;;;;;14.85;76.31;102798.34;6299716;22;20006;-80
2022/12/17 20:53:48;;;;;;;12.97;10.17;;;;;;;14.86;76.58;102791.44;6330173;22;20014;-81
2022/12/17 20:56:36;;;;;;;12.32;10.15;;;;;;;14.85;76.17;102800.94;6330662;22;20225;-81
2022/12/17 20:59:15;;;;;;;11.98;9.90;;;;;;;14.85;76.28;102800.94;6328017;22;20017;-81
2022/12/17 21:02:04;;;;;;;10.68;9.02;;;;;;;14.88;76.26;102797.56;6295285;22;20003;-81
2022/12/17 21:04:33;;;;;;;12.10;9.88;;;;;;;14.86;76.27;102799.22;6294232;22;20003;-81
2022/12/17 21:07:07;;;;;;;12.63;9.68;;;;;;;14.87;76.34;102807.03;6268823;22;20010;-81
2022/12/17 21:09:50;;;;;;;11.88;9.32;;;;;;;14.85;76.07;102805.22;6233428;23;20062;-81
2022/12/17 21:12:18;;;;;;;11.70;9.85;;;;;;;14.86;76.05;102796.63;6233412;23;20016;-81
2022/12/17 21:14:48;;;;;;;11.57;9.18;;;;;;;14.85;75.95;102802.63;6208550;23;20005;-81
2022/12/17 21:17:25;;;;;;;11.88;9.13;;;;;;;14.84;75.86;102803.47;6227732;23;20008;-81
2022/12/17 21:19:57;;;;;;;12.38;9.82;;;;;;;14.84;75.87;102816.44;6210624;23;20013;-81
2022/12/17 21:22:24;;;;;;;11.82;9.68;;;;;;;14.81;75.79;102805.13;6180093;23;20020;-81
2022/12/17 21:24:59;;;;;;;11.95;9.63;;;;;;;14.80;75.50;102818.91;6140835;23;20017;-81
2022/12/17 21:27:27;;;;;;;12.85;10.07;;;;;;;14.82;75.64;102826.72;6114192;23;20006;-81
2022/12/17 21:33:30;;;;;;;12.50;10.13;;;;;;;14.79;75.74;102843.06;6113698;23;20159;-81
2022/12/17 21:36:06;;;;;;;13.75;10.32;;;;;;;14.78;75.54;102841.28;6113816;23;20038;-81
2022/12/17 21:38:44;;;;;;;12.05;9.75;;;;;;;14.80;75.37;102843.94;6113801;23;20006;-81
2022/12/17 21:41:31;;;;;;;12.75;9.50;;;;;;;14.79;75.26;102837.88;6081374;23;20011;-81
2022/12/17 21:44:12;;;;;;;11.15;9.32;;;;;;;14.79;75.23;102845.66;5603741;23;10948544;-81
2022/12/17 21:46:39;;;;;;;11.55;9.20;;;;;;;14.79;75.24;102853.44;6108771;23;20037;-81
2022/12/17 21:49:07;;;;;;;12.65;9.93;;;;;;;14.78;75.48;102846.47;6112643;23;20022;-81
2022/12/17 21:51:57;;;;;;;13.40;10.05;;;;;;;14.79;75.23;102860.34;6113069;23;20006;-81
2022/12/17 21:54:25;;;;;;;13.18;9.82;;;;;;;14.78;75.19;102856.84;6089580;23;20006;-81
2022/12/17 21:57:30;;;;;;;;;;;;;;;;;;;;;
2022/12/17 21:59:58;;;;;;;13.55;10.15;;;;;;;14.77;75.20;102860.28;6093029;23;20010;-81
2022/12/17 22:02:29;;;;;;;13.20;10.23;;;;;;;14.77;74.95;102862.00;6117549;23;20009;-81
2022/12/17 22:04:57;;;;;;;12.68;10.32;;;;;;;14.75;75.09;102867.13;6143870;23;20013;-81
2022/12/17 22:07:28;;;;;;;12.65;10.15;;;;;;;14.75;75.23;102867.13;6118002;23;20085;-81
2022/12/17 22:10:01;;;;;;;14.05;10.73;;;;;;;14.76;75.17;102867.97;6146682;23;20082;-81
2022/12/17 22:15:19;;;;;;;12.85;10.25;;;;;;;14.74;74.85;102857.59;6231862;23;20015;-81
2022/12/17 22:17:50;;;;;;;15.63;11.48;;;;;;;14.75;75.04;102863.66;6236287;23;20000;-81
2022/12/17 22:20:19;;;;;;;12.90;10.80;;;;;;;14.74;74.88;102861.88;6241479;23;20026;-81
2022/12/17 22:22:50;;;;;;;14.75;11.10;;;;;;;14.74;75.07;102857.59;6240798;23;20043;-81
2022/12/17 22:25:17;;;;;;;14.55;11.13;;;;;;;14.74;74.85;102854.09;6236020;23;20014;-81
2022/12/17 22:27:50;;;;;;;12.85;10.68;;;;;;;14.72;74.80;102848.88;6237677;23;20000;-82
2022/12/17 22:33:05;;;;;;;13.27;10.85;;;;;;;14.72;74.82;102841.09;6221136;23;20075;-80
2022/12/17 22:35:36;;;;;;;12.88;10.85;;;;;;;14.72;75.11;102845.38;6219987;23;20004;-81
2022/12/17 22:38:03;;;;;;;14.68;11.25;;;;;;;14.71;74.48;102846.22;6256151;23;20091;-81
2022/12/17 22:40:31;;;;;;;13.75;10.85;;;;;;;14.71;74.63;102846.22;6256498;23;20004;-81
2022/12/17 22:45:42;;;;;;;14.05;10.32;;;;;;;14.69;74.58;102851.34;6285713;22;20457;-81
2022/12/17 22:48:11;;;;;;;13.48;11.07;;;;;;;14.70;74.82;102857.41;6243998;22;20008;-80
2022/12/17 22:50:37;;;;;;;14.13;11.10;;;;;;;14.70;74.71;102854.81;6294626;22;20308;-80
2022/12/17 22:53:03;;;;;;;14.93;11.48;;;;;;;14.69;74.70;102850.47;6267443;22;20049;-80
2022/12/17 22:55:29;;;;;;;13.82;11.02;;;;;;;14.69;74.53;102859.13;6239529;22;20003;-79
2022/12/17 22:57:55;;;;;;;12.70;10.63;;;;;;;14.67;74.62;102853.00;6231765;22;20004;-81
2022/12/17 23:00:25;;;;;;;15.02;10.88;;;;;;;14.68;74.34;102861.69;6259333;22;20007;-79
2022/12/17 23:02:53;;;;;;;14.50;11.77;;;;;;;14.67;74.55;102865.97;6285950;22;20026;-81
2022/12/17 23:05:23;;;;;;;12.82;10.73;;;;;;;14.68;74.40;102865.16;6265962;22;20011;-81
2022/12/17 23:07:50;;;;;;;15.50;11.95;;;;;;;14.66;74.75;102868.53;6286496;22;20000;-80
2022/12/17 23:10:16;;;;;;;15.70;11.15;;;;;;;14.65;74.57;102869.31;6255933;22;20011;-81
2022/12/17 23:12:54;;;;;;;14.40;11.40;;;;;;;14.65;74.49;102872.78;6266513;22;20007;-80
2022/12/17 23:15:22;;;;;;;13.52;11.05;;;;;;;14.66;74.37;102876.28;6240533;22;20015;-82
2022/12/17 23:18:08;;;;;;;13.88;10.90;;;;;;;14.65;74.29;102875.38;6293534;22;19992;-84
